Goode, Virginia
Current Conditions -  °F | °C
As of 12:54 PM on Saturday 25 Oct 2014 (Local Time) from KLYH Reporting Station
Clear Clear  
Wind Chill: 65°   Ceiling: Unl
Heat Index: 65°   Visibility: 10mi
Dew Point: 41°   Wind: 9mph
Humidity: 42%   Direction: 210°SSW
Pressure: 29.99"   Gusts: NA
Location:  37.36°N, 79.39°W
Report Text: KLYH 251654Z 21008KT 10SM CLR 18/05 A2999 RMK AO2 SLP153 T01830050 $
Loading
Personal Weather Stations






























Interactive Weather Map
Tropical Storm Tracking
New forecast layout! Learn more

10-Day Weather Forecast

Advertisements
Track Severe Weather on mobile